Time;durP1;ratioP1;P1;durP2;ratioP2;P2;SDS_P1;SDS_P2;PMS_P1;PMS_P2;Temp;Humidity;BMP_temperature;BMP_pressure;BME280_temperature;BME280_humidity;BME280_pressure;Samples;Min_cycle;Max_cycle;Signal;HPM_P1;HPM_P2
2022/04/28 00:00:20;;;;;;;;;6.00;6.00;;;;;21.79;46.03;101805.38;109643;1270;18279;-51
2022/04/28 00:03:02;;;;;;;;;6.00;5.00;;;;;21.80;46.11;101804.39;109630;1270;18806;-53
2022/04/28 00:05:29;;;;;;;;;7.33;6.00;;;;;21.80;46.01;101800.74;109664;1269;18345;-49
2022/04/28 00:07:56;;;;;;;;;6.00;6.00;;;;;21.80;46.04;101792.36;109589;1270;18278;-51
2022/04/28 00:10:24;;;;;;;;;6.33;5.33;;;;;21.79;45.94;101788.12;109594;1269;20139;-51
2022/04/28 00:12:51;;;;;;;;;5.33;5.00;;;;;21.78;46.05;101789.65;109571;1270;18388;-50
2022/04/28 00:15:18;;;;;;;;;7.00;6.50;;;;;21.78;46.02;101789.14;109601;1269;19464;-50
2022/04/28 00:17:46;;;;;;;;;7.00;6.00;;;;;21.76;46.02;101787.11;109517;1269;18623;-50
2022/04/28 00:20:13;;;;;;;;;6.00;6.00;;;;;21.76;46.15;101784.21;109607;1270;18372;-49
2022/04/28 00:22:40;;;;;;;;;5.00;5.00;;;;;21.77;45.93;101788.15;109561;1270;18067;-48
2022/04/28 00:25:08;;;;;;;;;6.00;6.00;;;;;21.76;45.97;101786.20;109598;1269;19380;-50
2022/04/28 00:27:35;;;;;;;;;8.00;8.00;;;;;21.76;46.15;101785.13;109591;1270;20627;-51
2022/04/28 00:30:02;;;;;;;;;9.00;7.00;;;;;21.77;46.10;101783.81;109601;1270;19225;-54
2022/04/28 00:32:30;;;;;;;;;6.00;6.00;;;;;21.77;45.88;101783.80;109594;1270;19023;-50
2022/04/28 00:34:58;;;;;;;;;7.00;6.00;;;;;21.76;46.05;101780.57;109605;1270;20971;-51
2022/04/28 00:37:25;;;;;;;;;5.00;5.00;;;;;21.76;46.10;101776.22;109643;1269;23147;-50
2022/04/28 00:39:52;;;;;;;;;6.33;6.33;;;;;21.77;45.87;101775.23;109617;1270;18696;-49
2022/04/28 00:42:20;;;;;;;;;6.00;6.00;;;;;21.76;45.89;101769.88;109606;1269;22180;-51
2022/04/28 00:44:47;;;;;;;;;6.00;6.00;;;;;21.76;45.84;101765.30;109591;1269;17901;-51
2022/04/28 00:47:14;;;;;;;;;6.00;5.67;;;;;21.77;45.98;101764.09;109476;1270;18670;-52
2022/04/28 00:52:26;;;;;;;;;5.00;5.00;;;;;21.77;45.86;101758.30;109566;1270;18105;-51
2022/04/28 00:54:54;;;;;;;;;5.00;5.00;;;;;21.78;45.82;101761.52;109569;1270;19229;-50
2022/04/28 00:57:21;;;;;;;;;6.33;6.00;;;;;21.77;45.55;101755.23;109610;1269;18311;-51
2022/04/28 00:59:48;;;;;;;;;6.00;5.67;;;;;21.78;45.78;101760.21;109582;1270;22273;-51
2022/04/28 01:02:17;;;;;;;;;5.00;5.00;;;;;21.77;45.63;101755.36;109565;1270;19544;-50
2022/04/28 01:04:45;;;;;;;;;5.00;5.00;;;;;21.78;45.73;101761.34;109600;1269;20749;-50
2022/04/28 01:07:12;;;;;;;;;6.50;5.50;;;;;21.77;45.67;101760.61;109610;1270;19086;-51
2022/04/28 01:09:39;;;;;;;;;6.00;6.00;;;;;21.77;45.69;101757.73;109614;1269;18673;-51
2022/04/28 01:12:07;;;;;;;;;5.00;5.00;;;;;21.77;45.60;101756.80;109651;1269;21326;-52
2022/04/28 01:14:35;;;;;;;;;6.00;5.00;;;;;21.77;45.69;101754.61;109606;1270;17983;-50
2022/04/28 01:17:02;;;;;;;;;6.00;6.00;;;;;21.77;45.59;101750.45;109616;1269;18781;-51
2022/04/28 01:19:29;;;;;;;;;6.67;6.00;;;;;21.76;45.82;101751.33;109595;1270;19339;-50
2022/04/28 01:21:57;;;;;;;;;7.00;6.33;;;;;21.76;45.73;101749.86;109601;1270;17983;-50
2022/04/28 01:24:25;;;;;;;;;6.00;5.00;;;;;21.75;45.65;101748.14;109644;1269;20414;-52
2022/04/28 01:26:52;;;;;;;;;6.00;5.33;;;;;21.75;45.61;101743.22;109554;1270;18324;-49
2022/04/28 01:29:19;;;;;;;;;6.50;6.00;;;;;21.75;45.80;101742.16;109575;1270;19511;-51
2022/04/28 01:31:47;;;;;;;;;5.67;5.67;;;;;21.74;45.64;101734.41;109540;1269;21835;-50
2022/04/28 01:34:14;;;;;;;;;6.00;6.00;;;;;21.75;45.87;101729.61;109569;1270;18470;-49
2022/04/28 01:36:41;;;;;;;;;7.50;6.00;;;;;21.73;45.75;101728.31;109642;1270;23695;-51
2022/04/28 01:39:09;;;;;;;;;7.00;6.00;;;;;21.73;45.60;101729.67;109623;1269;19078;-50
2022/04/28 01:41:36;;;;;;;;;5.33;4.00;;;;;21.73;45.58;101725.64;109603;1269;18477;-50
2022/04/28 01:44:03;;;;;;;;;5.67;5.00;;;;;21.73;45.74;101724.02;109610;1269;19383;-51
2022/04/28 01:46:31;;;;;;;;;6.00;6.00;;;;;21.72;45.57;101722.58;109573;1271;18682;-51
2022/04/28 01:48:58;;;;;;;;;8.33;8.00;;;;;21.73;45.69;101721.83;109587;1270;18558;-50
2022/04/28 01:56:55;;;;;;;;;5.33;5.33;;;;;21.72;45.64;101719.17;109610;1270;18596;-49
2022/04/28 01:59:23;;;;;;;;;6.00;6.00;;;;;21.72;45.63;101719.58;109645;1269;18060;-50
2022/04/28 02:01:50;;;;;;;;;6.00;5.00;;;;;21.72;45.57;101717.88;109646;1270;18810;-50
2022/04/28 02:04:17;;;;;;;;;7.33;6.67;;;;;21.72;45.61;101719.51;109600;1269;21596;-50
2022/04/28 02:06:44;;;;;;;;;8.00;8.00;;;;;21.73;45.36;101721.08;109625;1271;18501;-50
2022/04/28 02:09:12;;;;;;;;;5.33;5.00;;;;;21.73;45.35;101723.98;109646;1269;18883;-51
2022/04/28 02:11:39;;;;;;;;;7.67;6.00;;;;;21.73;45.25;101724.69;109591;1269;18441;-50
2022/04/28 02:14:07;;;;;;;;;7.00;7.00;;;;;21.74;45.49;101734.96;109604;1270;18016;-49
2022/04/28 02:16:34;;;;;;;;;5.00;5.00;;;;;21.73;45.26;101739.57;109611;1269;18832;-51
2022/04/28 02:19:02;;;;;;;;;6.00;6.00;;;;;21.74;45.40;101749.66;109793;1268;18479;-51
2022/04/28 02:21:29;;;;;;;;;4.00;4.00;;;;;21.73;45.27;101756.33;109598;1269;18139;-49
2022/04/28 02:23:56;;;;;;;;;5.00;5.00;;;;;21.75;45.31;101763.08;109542;1269;22167;-54
2022/04/28 02:26:24;;;;;;;;;6.00;6.00;;;;;21.74;45.16;101763.00;109625;1270;18488;-52
2022/04/28 02:28:51;;;;;;;;;8.67;5.00;;;;;21.74;45.30;101757.91;109535;1269;19479;-51
2022/04/28 02:31:18;;;;;;;;;6.00;6.00;;;;;21.74;45.24;101755.94;109589;1270;18872;-51
2022/04/28 02:33:46;;;;;;;;;5.67;5.67;;;;;21.73;45.14;101746.35;109608;1270;18294;-50
2022/04/28 02:36:13;;;;;;;;;5.00;5.00;;;;;21.73;45.24;101739.49;109645;1269;18021;-51
2022/04/28 02:38:41;;;;;;;;;6.67;6.00;;;;;21.72;45.34;101735.91;109588;1270;18764;-50
2022/04/28 02:41:08;;;;;;;;;5.00;5.00;;;;;21.72;45.37;101734.30;109577;1269;21828;-51
2022/04/28 02:43:35;;;;;;;;;5.00;5.00;;;;;21.71;45.34;101735.15;109495;1269;18056;-52
2022/04/28 02:46:03;;;;;;;;;5.67;5.67;;;;;21.71;45.22;101735.29;109505;1270;18853;-51
2022/04/28 02:48:30;;;;;;;;;6.00;5.00;;;;;21.72;45.11;101740.48;109621;1270;18392;-52
2022/04/28 02:50:57;;;;;;;;;6.00;6.00;;;;;21.71;45.15;101741.87;109610;1270;20734;-51
2022/04/28 02:53:24;;;;;;;;;6.00;6.00;;;;;21.70;45.35;101741.35;109583;1270;18898;-51
2022/04/28 02:55:52;;;;;;;;;8.00;6.00;;;;;21.70;45.32;101736.14;109560;1270;19140;-48
2022/04/28 02:58:19;;;;;;;;;6.00;5.00;;;;;21.69;45.33;101734.41;109616;1270;28805;-50
2022/04/28 03:00:46;;;;;;;;;6.00;6.00;;;;;21.70;45.31;101738.34;109535;1269;18673;-49
2022/04/28 03:03:14;;;;;;;;;5.00;5.00;;;;;21.69;45.08;101737.45;109633;1270;18309;-50
2022/04/28 03:11:11;;;;;;;;;5.33;5.00;;;;;21.69;45.09;101736.02;109562;1270;21384;-51
2022/04/28 03:13:39;;;;;;;;;4.33;4.33;;;;;21.70;45.10;101742.70;109583;1269;18111;-50
2022/04/28 03:16:06;;;;;;;;;5.67;5.00;;;;;21.70;45.03;101747.61;109491;1269;18849;-52
2022/04/28 03:18:34;;;;;;;;;6.00;6.00;;;;;21.70;44.94;101748.10;109618;1270;18279;-54
2022/04/28 03:21:01;;;;;;;;;7.00;6.00;;;;;21.70;45.13;101754.68;109633;1270;18173;-46
2022/04/28 03:23:29;;;;;;;;;5.00;5.00;;;;;21.69;44.97;101748.23;109620;1270;19930;-50
2022/04/28 03:25:56;;;;;;;;;5.00;5.00;;;;;21.71;44.89;101748.79;109604;1269;21912;-48
2022/04/28 03:28:23;;;;;;;;;5.00;5.00;;;;;21.71;44.96;101739.17;109636;1270;18043;-51
2022/04/28 03:30:51;;;;;;;;;8.00;6.00;;;;;21.70;45.08;101736.33;109578;1270;18857;-50
2022/04/28 03:33:18;;;;;;;;;5.00;5.00;;;;;21.69;45.16;101733.16;109634;1270;18324;-52
2022/04/28 03:35:45;;;;;;;;;5.00;5.00;;;;;21.69;45.04;101737.14;109623;1270;18089;-50
2022/04/28 03:38:14;;;;;;;;;5.00;5.00;;;;;21.70;44.97;101739.42;109619;1270;18870;-49
2022/04/28 03:40:41;;;;;;;;;6.00;5.67;;;;;21.70;45.04;101739.21;109639;1269;19584;-51
2022/04/28 03:43:09;;;;;;;;;5.00;5.00;;;;;21.70;44.90;101747.55;109592;1270;17994;-48
2022/04/28 03:45:36;;;;;;;;;5.00;5.00;;;;;21.69;44.86;101746.38;109601;1269;18874;-51
2022/04/28 03:48:04;;;;;;;;;7.33;6.00;;;;;21.70;44.98;101750.31;109589;1270;19527;-52
2022/04/28 03:50:31;;;;;;;;;5.33;5.33;;;;;21.69;45.02;101755.30;109623;1269;19248;-51
2022/04/28 03:52:59;;;;;;;;;6.00;5.00;;;;;21.69;44.92;101759.14;109594;1269;21979;-51
2022/04/28 03:55:26;;;;;;;;;7.00;6.00;;;;;21.69;45.02;101764.54;109574;1270;21691;-49
2022/04/28 03:57:54;;;;;;;;;5.00;5.00;;;;;21.70;44.95;101764.89;109593;1270;18126;-50
2022/04/28 04:00:21;;;;;;;;;6.00;5.33;;;;;21.70;44.91;101767.27;109628;1269;19193;-51
2022/04/28 04:02:48;;;;;;;;;5.33;5.33;;;;;21.69;45.01;101770.95;109597;1270;21950;-51
2022/04/28 04:05:16;;;;;;;;;8.00;8.00;;;;;21.69;44.96;101775.55;109596;1269;18240;-51
2022/04/28 04:07:43;;;;;;;;;5.50;5.50;;;;;21.68;44.98;101779.97;109600;1270;20106;-53
2022/04/28 04:10:11;;;;;;;;;6.00;5.33;;;;;21.68;44.84;101778.91;109609;1270;18658;-49
2022/04/28 04:12:38;;;;;;;;;6.00;5.33;;;;;21.67;45.04;101781.17;109629;1270;19445;-51
2022/04/28 04:15:06;;;;;;;;;5.33;5.00;;;;;21.67;44.88;101784.20;109600;1270;18675;-54
2022/04/28 04:17:33;;;;;;;;;5.00;5.00;;;;;21.67;44.84;101784.07;109576;1270;19418;-50
2022/04/28 04:20:01;;;;;;;;;5.00;5.00;;;;;21.67;44.97;101781.34;109571;1269;19617;-52
2022/04/28 04:22:28;;;;;;;;;6.00;5.00;;;;;21.69;44.92;101785.20;109549;1269;18743;-51
2022/04/28 04:24:55;;;;;;;;;6.00;5.00;;;;;21.68;44.68;101783.59;109624;1270;18486;-52
2022/04/28 04:27:23;;;;;;;;;5.00;5.00;;;;;21.69;44.79;101784.78;109642;1270;18000;-50
2022/04/28 04:29:50;;;;;;;;;6.00;5.00;;;;;21.69;44.73;101792.46;109562;1270;21973;-51
2022/04/28 04:32:25;;;;;;;;;6.00;5.00;;;;;21.69;44.79;101789.66;109587;1269;18299;-51
2022/04/28 04:34:52;;;;;;;;;6.00;5.00;;;;;21.70;44.78;101789.06;109608;1269;21813;-51
2022/04/28 04:37:19;;;;;;;;;7.33;6.00;;;;;21.70;44.88;101787.59;109605;1270;18771;-52
2022/04/28 04:39:47;;;;;;;;;5.00;5.00;;;;;21.70;44.79;101792.54;109593;1269;19023;-51
2022/04/28 04:42:14;;;;;;;;;5.50;5.50;;;;;21.71;44.78;101800.81;109610;1270;20580;-50
2022/04/28 04:44:41;;;;;;;;;5.67;5.00;;;;;21.70;44.71;101799.77;109587;1270;19216;-52
2022/04/28 04:47:09;;;;;;;;;8.00;6.00;;;;;21.70;44.56;101799.60;109605;1270;18370;-51
2022/04/28 04:49:36;;;;;;;;;6.00;6.00;;;;;21.70;44.64;101799.59;109600;1270;18125;-51
2022/04/28 04:52:03;;;;;;;;;5.67;5.00;;;;;21.71;44.44;101807.48;110128;1267;18736;-51
2022/04/28 04:54:31;;;;;;;;;6.00;5.00;;;;;21.73;44.27;101808.40;110144;1267;18738;-49
2022/04/28 04:56:58;;;;;;;;;5.00;5.00;;;;;21.73;44.38;101802.91;110170;1268;18283;-53
2022/04/28 04:59:25;;;;;;;;;5.33;5.33;;;;;21.75;44.43;101808.92;110137;1267;18860;-50
2022/04/28 05:01:53;;;;;;;;;9.00;7.00;;;;;21.75;44.33;101810.73;110141;1267;18468;-52
2022/04/28 05:04:20;;;;;;;;;5.00;5.00;;;;;21.76;44.60;101813.55;110166;1267;18286;-52
2022/04/28 05:06:47;;;;;;;;;5.00;5.00;;;;;21.76;44.44;101811.70;110173;1267;20124;-49
2022/04/28 05:09:15;;;;;;;;;7.00;6.00;;;;;21.78;44.40;101812.85;110190;1267;18338;-53
2022/04/28 05:11:42;;;;;;;;;6.00;6.00;;;;;21.79;44.36;101816.30;110175;1267;23735;-50
2022/04/28 05:14:10;;;;;;;;;6.67;6.00;;;;;21.87;45.16;101818.00;110124;1267;18721;-50
2022/04/28 05:16:37;;;;;;;;;7.00;6.00;;;;;21.96;45.75;101816.57;110205;1267;19205;-52
2022/04/28 05:19:04;;;;;;;;;7.00;6.00;;;;;22.04;46.11;101816.64;110138;1266;20246;-51
2022/04/28 05:21:32;;;;;;;;;6.00;5.00;;;;;22.08;46.16;101816.77;110157;1267;18859;-54
2022/04/28 05:23:59;;;;;;;;;5.00;5.00;;;;;22.11;46.29;101818.08;110137;1267;19003;-50
2022/04/28 05:26:26;;;;;;;;;6.00;5.50;;;;;22.16;46.04;101821.48;110156;1267;18102;-51
2022/04/28 05:28:57;;;;;;;;;7.00;6.00;;;;;22.21;46.05;101824.55;110866;1255;62666;-90
2022/04/28 05:31:24;;;;;;;;;7.00;6.00;;;;;22.22;46.00;101825.52;110313;1265;18342;-55
2022/04/28 05:33:51;;;;;;;;;8.50;8.50;;;;;22.22;46.00;101828.42;110264;1264;18098;-52
2022/04/28 05:36:20;;;;;;;;;6.00;5.67;;;;;22.18;46.09;101829.46;110270;1265;19219;-51
2022/04/28 05:38:47;;;;;;;;;7.33;7.00;;;;;22.13;45.95;101831.69;110198;1265;22477;-52
2022/04/28 05:41:15;;;;;;;;;8.67;6.00;;;;;22.11;45.86;101829.23;110183;1267;17970;-52
2022/04/28 05:46:27;;;;;;;;;6.00;5.00;;;;;22.10;45.51;101842.37;110110;1267;19204;-52
2022/04/28 05:48:54;;;;;;;;;6.50;6.00;;;;;22.12;45.42;101841.48;110167;1265;20255;-52
2022/04/28 05:51:21;;;;;;;;;7.00;7.00;;;;;22.12;45.32;101845.84;110282;1264;18736;-51
2022/04/28 05:53:49;;;;;;;;;9.00;9.00;;;;;22.11;44.98;101844.27;110239;1264;18588;-51
2022/04/28 05:56:16;;;;;;;;;10.00;9.00;;;;;22.11;44.83;101844.70;110242;1264;22150;-52
2022/04/28 05:58:43;;;;;;;;;10.00;7.33;;;;;22.13;44.77;101846.84;110266;1263;18737;-51
2022/04/28 06:01:11;;;;;;;;;7.33;6.33;;;;;22.14;44.71;101846.74;110266;1265;18708;-51
2022/04/28 06:03:39;;;;;;;;;7.00;7.00;;;;;22.14;44.71;101853.67;110306;1264;19309;-52
2022/04/28 06:06:07;;;;;;;;;7.00;7.00;;;;;22.12;44.91;101853.31;110236;1264;22640;-52
2022/04/28 06:08:34;;;;;;;;;13.00;12.33;;;;;22.02;43.57;101856.83;110227;1264;18596;-51
2022/04/28 06:11:02;;;;;;;;;10.00;10.00;;;;;21.98;43.22;101859.16;110258;1264;18414;-50
2022/04/28 06:13:30;;;;;;;;;11.00;10.00;;;;;21.94;42.22;101859.35;110275;1264;18884;-52
2022/04/28 06:15:58;;;;;;;;;9.00;9.00;;;;;21.86;40.97;101859.39;110273;1264;21960;-52
2022/04/28 06:18:25;;;;;;;;;10.00;10.00;;;;;21.86;41.51;101861.98;110094;1264;200272;-49
2022/04/28 06:20:53;;;;;;;;;11.33;9.67;;;;;21.91;42.12;101860.96;110180;1264;21945;-52
2022/04/28 06:23:20;;;;;;;;;13.33;12.00;;;;;21.93;41.49;101862.91;110143;1264;18668;-52
2022/04/28 06:25:48;;;;;;;;;13.33;11.00;;;;;21.95;41.34;101862.88;110223;1264;18380;-55
2022/04/28 06:28:15;;;;;;;;;11.00;10.00;;;;;21.95;40.71;101861.48;110242;1265;18973;-53
2022/04/28 06:30:42;;;;;;;;;14.00;10.33;;;;;21.98;40.74;101869.71;110300;1264;19013;-53
2022/04/28 06:33:10;;;;;;;;;9.67;9.67;;;;;21.96;40.27;101870.30;110195;1264;21531;-52
2022/04/28 06:35:38;;;;;;;;;14.00;10.33;;;;;21.95;40.82;101873.66;110247;1264;19015;-54
2022/04/28 06:38:05;;;;;;;;;13.00;11.00;;;;;21.94;40.03;101872.98;110275;1264;18438;-53
2022/04/28 06:40:33;;;;;;;;;15.00;15.00;;;;;21.95;40.64;101876.56;110266;1264;18164;-53
2022/04/28 06:43:00;;;;;;;;;10.00;10.00;;;;;21.95;40.01;101876.38;110212;1264;18723;-52
2022/04/28 06:45:27;;;;;;;;;13.33;10.00;;;;;21.96;40.43;101878.24;110216;1265;18663;-53
2022/04/28 06:47:55;;;;;;;;;11.00;10.67;;;;;21.97;39.73;101877.08;110274;1265;18228;-51
2022/04/28 06:50:22;;;;;;;;;11.00;11.00;;;;;21.98;39.06;101875.27;110233;1264;18752;-52
2022/04/28 06:52:49;;;;;;;;;10.67;10.67;;;;;21.98;38.93;101878.01;110236;1264;19217;-55
2022/04/28 06:55:17;;;;;;;;;11.00;11.00;;;;;22.00;38.57;101880.23;110231;1265;18200;-52
2022/04/28 06:57:44;;;;;;;;;13.00;13.00;;;;;22.01;38.55;101881.76;110269;1264;18770;-53
2022/04/28 07:00:11;;;;;;;;;10.00;10.00;;;;;22.01;38.00;101880.06;110139;1267;18951;-51
2022/04/28 07:02:39;;;;;;;;;14.00;11.33;;;;;22.06;37.29;101879.04;110262;1262;18374;-51
2022/04/28 07:05:06;;;;;;;;;10.67;10.00;;;;;22.16;37.05;101884.96;110151;1265;18961;-50
2022/04/28 07:07:34;;;;;;;;;10.50;10.00;;;;;22.23;36.94;101890.60;110151;1265;18992;-51
2022/04/28 07:10:01;;;;;;;;;11.33;11.33;;;;;22.28;37.35;101890.84;110207;1264;18383;-51
2022/04/28 07:12:29;;;;;;;;;12.50;10.50;;;;;22.28;37.38;101894.66;110279;1265;20438;-52
2022/04/28 07:14:56;;;;;;;;;10.33;10.00;;;;;22.27;37.90;101897.33;110146;1265;20132;-51
2022/04/28 07:17:23;;;;;;;;;13.00;10.33;;;;;22.23;38.32;101900.98;110216;1264;18301;-52
2022/04/28 07:19:51;;;;;;;;;14.00;12.67;;;;;22.20;38.37;101904.38;110204;1264;18796;-52
2022/04/28 07:22:18;;;;;;;;;13.67;10.33;;;;;22.18;38.50;101906.41;110214;1264;18813;-50
2022/04/28 07:24:45;;;;;;;;;12.67;10.67;;;;;22.14;38.33;101900.05;110231;1264;22152;-53
2022/04/28 07:27:12;;;;;;;;;11.00;10.67;;;;;22.10;37.94;101900.81;110198;1264;18873;-50
2022/04/28 07:29:40;;;;;;;;;9.67;9.00;;;;;22.05;37.26;101897.13;110056;1266;18737;-51
2022/04/28 07:32:07;;;;;;;;;10.00;10.00;;;;;21.98;35.23;101899.00;110279;1264;18445;-49
2022/04/28 07:34:34;;;;;;;;;11.00;10.67;;;;;21.92;34.67;101896.83;110192;1265;19237;-56
2022/04/28 07:37:02;;;;;;;;;10.00;9.00;;;;;21.87;34.54;101899.04;110085;1264;18802;-52
2022/04/28 07:39:29;;;;;;;;;12.00;10.00;;;;;21.83;34.60;101898.63;110244;1265;22536;-49
2022/04/28 07:41:56;;;;;;;;;9.00;9.00;;;;;21.83;33.91;101902.48;110040;1264;18635;-49
2022/04/28 07:44:23;;;;;;;;;11.67;9.67;;;;;21.82;33.69;101904.21;110125;1264;18675;-51
2022/04/28 07:46:50;;;;;;;;;10.00;9.33;;;;;21.65;32.94;101901.24;110193;1264;22216;-50
2022/04/28 07:49:18;;;;;;;;;10.00;9.00;;;;;21.62;32.83;101902.64;110182;1264;18929;-52
2022/04/28 07:51:45;;;;;;;;;11.33;11.00;;;;;21.66;32.57;101904.80;110197;1264;18880;-51
2022/04/28 07:54:12;;;;;;;;;11.00;10.33;;;;;21.62;32.51;101905.02;110111;1265;18190;-51
2022/04/28 07:56:40;;;;;;;;;10.00;9.00;;;;;21.61;32.32;101906.55;110155;1264;23078;-50
2022/04/28 07:59:09;;;;;;;;;9.00;9.00;;;;;21.61;32.29;101906.38;110161;1265;18729;-51
2022/04/28 08:01:36;;;;;;;;;10.00;10.00;;;;;21.64;32.61;101903.36;110213;1265;22576;-52
2022/04/28 08:04:03;;;;;;;;;10.00;9.00;;;;;21.55;32.23;101909.70;110190;1264;18718;-50
2022/04/28 08:06:31;;;;;;;;;10.00;9.00;;;;;21.49;32.28;101913.73;110261;1264;18737;-52
2022/04/28 08:08:58;;;;;;;;;10.00;9.33;;;;;21.52;32.41;101918.39;110207;1264;21126;-51
2022/04/28 08:11:25;;;;;;;;;8.67;8.67;;;;;21.43;32.70;101920.74;110283;1264;22340;-51
2022/04/28 08:13:52;;;;;;;;;8.33;8.33;;;;;21.46;33.06;101915.52;110201;1264;23187;-51
2022/04/28 08:16:20;;;;;;;;;11.00;9.50;;;;;21.52;32.85;101916.34;110188;1264;18226;-52
2022/04/28 08:18:47;;;;;;;;;8.00;8.00;;;;;21.56;32.57;101914.99;110275;1264;19331;-53
2022/04/28 08:21:14;;;;;;;;;14.00;12.50;;;;;21.52;32.23;101916.69;110246;1265;18735;-51
2022/04/28 08:23:42;;;;;;;;;10.00;10.00;;;;;21.48;32.25;101915.38;110177;1263;18290;-55
2022/04/28 08:26:09;;;;;;;;;12.33;12.33;;;;;21.30;32.07;101919.83;110167;1264;18765;-55
2022/04/28 08:28:36;;;;;;;;;8.00;8.00;;;;;21.38;32.29;101918.53;110196;1264;20457;-52
2022/04/28 08:31:03;;;;;;;;;9.00;9.00;;;;;21.43;32.25;101914.40;110213;1264;18010;-50
2022/04/28 08:33:31;;;;;;;;;9.00;9.00;;;;;21.39;32.25;101918.92;110182;1265;18711;-50
2022/04/28 08:35:58;;;;;;;;;12.00;11.33;;;;;21.44;32.37;101915.39;110254;1265;22045;-49
2022/04/28 08:38:25;;;;;;;;;10.00;10.00;;;;;21.41;31.88;101918.74;110210;1265;18216;-54
2022/04/28 08:40:52;;;;;;;;;12.67;12.00;;;;;21.11;31.67;101916.43;110234;1264;18687;-51
2022/04/28 08:43:20;;;;;;;;;18.00;17.00;;;;;21.22;31.79;101916.09;110267;1264;18666;-50
2022/04/28 08:48:28;;;;;;;;;17.50;17.50;;;;;21.33;31.71;101909.58;109923;1265;19196;-54
2022/04/28 08:50:56;;;;;;;;;17.00;16.00;;;;;21.25;31.90;101904.07;110038;1264;21924;-52
2022/04/28 08:53:23;;;;;;;;;18.33;17.00;;;;;21.33;32.14;101909.55;110096;1265;22249;-50
2022/04/28 08:55:50;;;;;;;;;13.00;13.00;;;;;21.37;32.52;101904.23;110181;1264;20873;-52
2022/04/28 08:58:17;;;;;;;;;16.00;14.00;;;;;21.39;33.24;101912.58;110090;1267;18779;-50
2022/04/28 09:00:44;;;;;;;;;12.00;10.67;;;;;21.44;32.99;101911.14;110208;1265;19112;-52
2022/04/28 09:03:12;;;;;;;;;13.00;13.00;;;;;21.53;32.86;101913.40;110121;1265;18909;-53
2022/04/28 09:05:40;;;;;;;;;10.00;10.00;;;;;21.56;32.96;101914.70;110151;1265;20239;-53
2022/04/28 09:08:08;;;;;;;;;10.00;10.00;;;;;21.60;32.37;101914.69;110095;1264;18172;-50
2022/04/28 09:10:35;;;;;;;;;10.67;10.00;;;;;21.59;32.69;101910.59;110062;1264;18791;-52
2022/04/28 09:15:44;;;;;;;;;12.50;12.00;;;;;21.62;32.41;101914.67;110112;1265;23138;-51
2022/04/28 09:18:11;;;;;;;;;11.33;9.33;;;;;21.52;31.88;101915.69;110111;1265;21923;-52
2022/04/28 09:20:38;;;;;;;;;10.67;10.67;;;;;21.18;31.52;101912.61;110187;1263;18717;-51
2022/04/28 09:23:05;;;;;;;;;13.33;12.33;;;;;21.17;31.63;101911.36;110005;1265;18374;-51
2022/04/28 09:25:33;;;;;;;;;14.00;12.00;;;;;21.29;31.81;101912.31;110116;1264;18731;-51
2022/04/28 09:28:00;;;;;;;;;11.33;9.67;;;;;21.32;31.68;101907.69;110093;1265;19297;-51
2022/04/28 09:30:27;;;;;;;;;10.00;9.50;;;;;21.31;31.19;101910.96;110181;1264;18699;-51
2022/04/28 09:32:55;;;;;;;;;13.00;12.67;;;;;21.37;31.68;101911.19;109855;1264;19072;-50
2022/04/28 09:35:23;;;;;;;;;13.00;10.00;;;;;21.45;31.79;101911.48;110081;1265;18789;-49
2022/04/28 09:37:50;;;;;;;;;8.00;8.00;;;;;21.52;31.70;101904.38;110213;1264;25110;-49
2022/04/28 09:43:02;;;;;;;;;9.33;9.00;;;;;21.66;32.33;101906.30;110118;1264;20656;-52
2022/04/28 09:45:31;;;;;;;;;12.00;10.00;;;;;21.67;32.16;101903.48;110080;1266;22538;-54
2022/04/28 09:47:58;;;;;;;;;8.33;8.33;;;;;21.62;32.29;101907.38;110153;1265;22263;-51
2022/04/28 09:50:25;;;;;;;;;11.33;10.00;;;;;21.63;32.61;101913.15;110118;1264;19439;-51
2022/04/28 09:52:52;;;;;;;;;10.67;9.00;;;;;21.69;32.79;101912.02;110125;1264;18287;-52
2022/04/28 09:55:20;;;;;;;;;12.00;11.00;;;;;21.78;33.00;101912.80;110165;1264;18751;-51
2022/04/28 09:57:47;;;;;;;;;10.00;9.50;;;;;21.85;33.32;101911.57;110088;1264;18739;-50
2022/04/28 10:00:15;;;;;;;;;11.00;11.00;;;;;21.80;33.22;101910.23;110162;1265;18287;-51
2022/04/28 10:02:42;;;;;;;;;10.00;9.67;;;;;21.76;33.17;101905.64;110099;1265;18759;-52
2022/04/28 10:05:09;;;;;;;;;11.00;11.00;;;;;21.72;32.55;101903.25;110107;1264;22011;-52
2022/04/28 10:07:37;;;;;;;;;9.00;8.00;;;;;21.71;32.84;101907.18;110038;1264;21701;-50
2022/04/28 10:10:05;;;;;;;;;9.67;9.33;;;;;21.73;32.87;101908.24;110110;1265;18657;-51
2022/04/28 10:12:32;;;;;;;;;13.00;10.67;;;;;21.71;32.10;101903.59;109988;1264;18318;-54
2022/04/28 10:14:59;;;;;;;;;10.00;10.00;;;;;21.49;31.82;101902.52;110067;1265;18228;-47
2022/04/28 10:17:26;;;;;;;;;9.00;9.00;;;;;21.43;31.88;101908.23;110073;1265;20613;-53
2022/04/28 10:19:53;;;;;;;;;10.00;10.00;;;;;21.54;32.51;101906.38;110105;1264;18788;-51
2022/04/28 10:22:21;;;;;;;;;14.00;12.67;;;;;21.61;32.34;101905.29;110038;1265;18217;-50
2022/04/28 10:33:03;;;;;;;;;10.00;10.00;;;;;21.64;32.55;101904.98;110028;1268;21914;-49
2022/04/28 10:35:30;;;;;;;;;10.00;10.00;;;;;21.61;32.73;101903.11;109966;1267;20688;-49
2022/04/28 10:37:57;;;;;;;;;9.67;9.00;;;;;21.57;32.49;101911.55;110199;1265;18180;-51
2022/04/28 10:40:24;;;;;;;;;9.00;9.00;;;;;21.48;32.52;101911.55;110159;1264;21899;-52
2022/04/28 10:42:52;;;;;;;;;10.00;9.00;;;;;21.37;32.43;101913.85;110169;1265;21096;-54
2022/04/28 10:45:19;;;;;;;;;10.00;10.00;;;;;21.30;32.42;101912.74;110182;1265;18234;-56
2022/04/28 10:47:47;;;;;;;;;13.00;12.00;;;;;21.27;32.11;101914.52;110135;1264;19119;-53
2022/04/28 10:50:14;;;;;;;;;12.33;11.33;;;;;21.27;32.18;101914.09;110160;1265;18847;-51
2022/04/28 10:52:41;;;;;;;;;9.33;9.00;;;;;21.28;32.22;101915.66;110143;1264;18339;-54
2022/04/28 10:55:10;;;;;;;;;15.67;13.67;;;;;21.34;32.30;101914.71;110125;1265;18847;-51
2022/04/28 10:57:37;;;;;;;;;12.00;10.00;;;;;21.28;32.21;101914.33;110225;1264;19577;-50
2022/04/28 11:00:05;;;;;;;;;10.00;10.00;;;;;21.24;32.01;101918.38;110180;1264;19110;-50
2022/04/28 11:02:34;;;;;;;;;13.00;10.00;;;;;21.22;32.16;101914.40;110183;1264;18849;-50
2022/04/28 11:05:03;;;;;;;;;12.67;10.00;;;;;21.19;32.10;101907.64;110228;1264;18695;-52
2022/04/28 11:07:30;;;;;;;;;16.00;13.00;;;;;21.25;31.99;101912.87;110258;1265;18239;-51
2022/04/28 11:09:58;;;;;;;;;13.67;13.00;;;;;21.25;31.76;101911.26;110170;1264;21650;-53
2022/04/28 11:12:25;;;;;;;;;16.33;12.00;;;;;21.26;31.83;101913.35;110237;1265;18978;-54
2022/04/28 11:14:52;;;;;;;;;10.67;10.67;;;;;21.33;32.00;101917.39;110215;1265;18218;-49
2022/04/28 11:17:21;;;;;;;;;13.00;12.00;;;;;21.40;32.01;101913.60;110267;1264;18742;-49
2022/04/28 11:19:48;;;;;;;;;16.00;13.00;;;;;21.41;31.83;101912.38;110120;1265;18666;-49
2022/04/28 11:22:15;;;;;;;;;12.33;10.00;;;;;21.40;31.92;101911.41;110153;1264;18231;-49
2022/04/28 11:24:42;;;;;;;;;14.33;11.33;;;;;21.42;32.48;101910.80;110250;1264;18635;-50
2022/04/28 11:27:10;;;;;;;;;9.67;9.67;;;;;21.51;32.60;101910.41;110195;1264;18837;-50
2022/04/28 11:29:39;;;;;;;;;13.67;12.00;;;;;21.55;32.74;101908.05;110222;1265;19542;-50
2022/04/28 11:32:06;;;;;;;;;12.00;10.00;;;;;21.60;32.53;101908.12;110242;1264;18944;-49
2022/04/28 11:34:34;;;;;;;;;13.00;12.00;;;;;21.63;32.58;101905.10;110163;1265;18944;-50
2022/04/28 11:37:01;;;;;;;;;13.00;12.67;;;;;21.66;32.60;101906.66;110237;1264;18232;-51
2022/04/28 11:39:28;;;;;;;;;13.00;12.00;;;;;21.70;32.68;101910.58;110232;1264;20403;-50
2022/04/28 11:41:58;;;;;;;;;14.00;13.50;;;;;21.73;33.00;101909.30;110092;1264;20085;-49
2022/04/28 11:44:26;;;;;;;;;10.00;10.00;;;;;21.74;33.00;101904.90;110214;1264;18332;-50